Time;durP1;ratioP1;P1;durP2;ratioP2;P2;SDS_P1;SDS_P2;PMS_P1;PMS_P2;Temp;Humidity;BMP_temperature;BMP_pressure;BME280_temperature;BME280_humidity;BME280_pressure;Samples;Min_cycle;Max_cycle;Signal;HPM_P1;HPM_P2
2022/02/19 00:02:25;;;;;;;3.03;1.17;;;11.90;42.90;;;;;;5042387;28;20536;-47
2022/02/19 00:04:50;;;;;;;10.90;1.67;;;11.80;42.60;;;;;;5043417;28;20471;-47
2022/02/19 00:07:16;;;;;;;6.00;1.30;;;11.90;42.90;;;;;;5044048;28;20534;-48
2022/02/19 00:09:42;;;;;;;6.10;1.67;;;11.70;42.70;;;;;;5050535;28;20220;-47
2022/02/19 00:12:08;;;;;;;8.20;1.60;;;11.90;43.10;;;;;;5048151;28;20189;-47
2022/02/19 00:14:34;;;;;;;5.13;2.00;;;12.10;42.70;;;;;;5041449;28;20447;-50
2022/02/19 00:17:03;;;;;;;3.63;1.50;;;12.10;42.50;;;;;;5047713;28;20995;-50
2022/02/19 00:19:29;;;;;;;4.97;1.47;;;12.20;42.30;;;;;;5046598;28;20280;-49
2022/02/19 00:21:54;;;;;;;4.27;1.50;;;12.20;42.10;;;;;;5047342;28;20526;-48
2022/02/19 00:24:20;;;;;;;5.00;1.30;;;12.10;41.90;;;;;;5043345;28;20789;-49
2022/02/19 00:26:46;;;;;;;6.47;1.87;;;12.00;41.80;;;;;;5040749;28;20199;-49
2022/02/19 00:29:11;;;;;;;3.00;1.43;;;11.90;41.90;;;;;;5037132;28;20240;-46
2022/02/19 00:31:37;;;;;;;4.60;1.70;;;12.00;41.60;;;;;;5046360;28;20570;-50
2022/02/19 00:34:03;;;;;;;4.50;1.30;;;12.00;41.50;;;;;;5046508;28;20339;-50
2022/02/19 00:36:29;;;;;;;3.10;1.47;;;12.10;41.60;;;;;;5033564;28;20226;-44
2022/02/19 00:38:54;;;;;;;8.33;1.80;;;11.90;41.30;;;;;;5042477;28;20275;-44
2022/02/19 00:41:20;;;;;;;3.67;1.60;;;11.70;41.40;;;;;;5048488;28;20443;-45
2022/02/19 00:43:46;;;;;;;6.00;1.30;;;11.80;41.50;;;;;;5043845;28;20278;-46
2022/02/19 00:46:11;;;;;;;4.20;1.80;;;11.70;41.50;;;;;;5029810;28;20582;-44
2022/02/19 00:48:37;;;;;;;7.17;1.87;;;11.80;41.20;;;;;;5047237;28;20200;-44
2022/02/19 00:51:04;;;;;;;5.80;1.90;;;12.00;41.20;;;;;;5047240;28;20201;-48
2022/02/19 00:53:29;;;;;;;5.40;1.70;;;12.10;41.30;;;;;;5042820;28;20200;-44
2022/02/19 00:55:55;;;;;;;6.17;1.70;;;12.20;41.10;;;;;;5046205;28;20530;-44
2022/02/19 00:58:21;;;;;;;3.00;1.83;;;11.80;40.50;;;;;;5043892;28;20261;-43
2022/02/19 01:00:46;;;;;;;3.73;1.30;;;11.80;41.20;;;;;;5043799;28;20447;-45
2022/02/19 01:03:12;;;;;;;6.47;1.30;;;11.60;41.30;;;;;;5042424;28;20423;-46
2022/02/19 01:05:38;;;;;;;5.20;1.80;;;11.80;41.70;;;;;;5043499;28;20196;-44
2022/02/19 01:08:04;;;;;;;4.30;1.57;;;12.00;41.40;;;;;;5046519;28;20440;-44
2022/02/19 01:10:30;;;;;;;3.27;1.40;;;12.00;41.10;;;;;;5047964;28;20577;-44
2022/02/19 01:12:56;;;;;;;7.80;1.83;;;12.00;40.90;;;;;;5045201;28;20444;-45
2022/02/19 01:15:22;;;;;;;6.20;1.57;;;12.10;41.00;;;;;;5045050;28;20188;-44
2022/02/19 01:17:48;;;;;;;4.50;1.80;;;12.20;40.90;;;;;;5037963;28;20193;-44
2022/02/19 01:20:13;;;;;;;8.70;1.70;;;12.10;40.90;;;;;;5041456;28;20446;-44
2022/02/19 01:22:42;;;;;;;7.60;2.10;;;11.80;40.90;;;;;;5039834;28;20270;-44
2022/02/19 01:25:10;;;;;;;3.83;1.27;;;11.90;41.40;;;;;;5045325;28;20200;-44
2022/02/19 01:27:37;;;;;;;7.00;1.63;;;12.10;40.80;;;;;;5044757;28;20446;-44
2022/02/19 01:30:04;;;;;;;4.20;1.97;;;12.00;40.40;;;;;;5045548;28;20508;-48
2022/02/19 01:32:30;;;;;;;4.00;1.53;;;12.10;40.60;;;;;;5043403;28;20462;-45
2022/02/19 01:34:55;;;;;;;4.30;1.50;;;12.00;40.00;;;;;;5044319;28;20468;-46
2022/02/19 01:37:21;;;;;;;11.97;1.80;;;12.00;39.90;;;;;;5049496;28;20200;-47
2022/02/19 01:39:47;;;;;;;6.40;1.50;;;11.90;40.20;;;;;;5049816;28;20193;-44
2022/02/19 01:42:13;;;;;;;6.37;1.37;;;12.00;40.40;;;;;;5049954;28;20228;-44
2022/02/19 01:44:42;;;;;;;6.73;1.47;;;11.90;39.80;;;;;;5042471;28;20648;-44
2022/02/19 01:47:08;;;;;;;4.00;1.50;;;11.70;39.90;;;;;;5044805;28;20188;-45
2022/02/19 01:49:33;;;;;;;5.67;1.27;;;11.60;39.90;;;;;;5044584;28;20833;-44
2022/02/19 01:52:00;;;;;;;3.20;1.33;;;11.80;40.00;;;;;;5041374;28;20427;-46
2022/02/19 01:54:26;;;;;;;5.87;1.80;;;11.70;39.50;;;;;;5046101;28;20228;-44
2022/02/19 01:56:52;;;;;;;7.23;2.03;;;11.70;39.40;;;;;;5044911;28;20538;-45
2022/02/19 01:59:18;;;;;;;4.30;1.43;;;11.60;38.70;;;;;;5043677;28;20546;-47
2022/02/19 02:01:43;;;;;;;2.73;1.00;;;11.30;38.90;;;;;;5042011;28;20199;-44
2022/02/19 02:04:09;;;;;;;3.50;1.50;;;11.50;39.00;;;;;;5040782;28;20530;-44
2022/02/19 02:06:36;;;;;;;4.37;1.60;;;11.50;38.30;;;;;;5037053;28;20208;-45
2022/02/19 02:09:03;;;;;;;6.53;1.70;;;11.20;38.30;;;;;;5036798;28;20496;-45
2022/02/19 02:11:28;;;;;;;4.23;1.10;;;11.00;38.50;;;;;;5046833;28;20450;-44
2022/02/19 02:13:54;;;;;;;5.40;1.30;;;11.10;38.80;;;;;;5043377;28;20808;-44
2022/02/19 02:16:19;;;;;;;6.07;1.40;;;11.50;38.70;;;;;;5045560;28;20636;-44
2022/02/19 02:18:45;;;;;;;3.20;1.10;;;11.60;38.50;;;;;;5046078;28;20279;-45
2022/02/19 02:21:12;;;;;;;4.17;1.43;;;11.60;38.30;;;;;;5030888;28;20220;-44
2022/02/19 02:23:38;;;;;;;1.83;1.00;;;11.80;38.70;;;;;;5041190;28;20443;-44
2022/02/19 02:26:05;;;;;;;3.33;1.33;;;11.70;38.40;;;;;;5038863;28;20450;-44
2022/02/19 02:28:31;;;;;;;2.67;1.20;;;11.40;38.50;;;;;;5040863;28;20583;-46
2022/02/19 02:30:56;;;;;;;5.63;1.47;;;11.30;38.30;;;;;;5043642;28;20500;-45
2022/02/19 02:33:23;;;;;;;9.87;1.50;;;11.30;38.70;;;;;;5042266;28;20439;-44
2022/02/19 02:35:50;;;;;;;3.80;1.67;;;11.40;38.80;;;;;;5037954;28;20203;-44
2022/02/19 02:38:16;;;;;;;4.20;1.63;;;11.50;38.70;;;;;;5045095;28;21021;-45
2022/02/19 02:40:42;;;;;;;4.60;1.60;;;11.40;38.30;;;;;;5042336;28;20452;-46
2022/02/19 02:43:07;;;;;;;3.20;1.30;;;11.50;38.60;;;;;;5042350;28;20806;-44
2022/02/19 02:45:33;;;;;;;5.20;1.07;;;11.40;38.20;;;;;;5043718;28;20204;-44
2022/02/19 02:47:59;;;;;;;4.33;1.23;;;11.10;38.20;;;;;;5033906;28;20205;-43
2022/02/19 02:50:25;;;;;;;5.67;1.40;;;11.00;38.70;;;;;;5042492;28;20228;-44
2022/02/19 02:52:50;;;;;;;3.53;1.93;;;11.30;38.80;;;;;;5041864;28;20611;-44
2022/02/19 02:55:16;;;;;;;4.70;1.60;;;11.40;38.60;;;;;;5041710;28;20641;-43
2022/02/19 02:57:42;;;;;;;4.77;1.40;;;11.60;38.40;;;;;;5042968;28;20196;-44
2022/02/19 03:00:11;;;;;;;4.07;1.50;;;11.60;38.20;;;;;;5043410;28;20246;-44
2022/02/19 03:02:37;;;;;;;3.53;1.17;;;11.60;38.10;;;;;;5043939;28;20443;-46
2022/02/19 03:05:05;;;;;;;3.43;1.50;;;11.60;38.20;;;;;;5035607;28;20449;-44
2022/02/19 03:07:31;;;;;;;3.73;1.43;;;11.50;38.30;;;;;;5046898;28;20443;-44
2022/02/19 03:09:57;;;;;;;4.93;1.43;;;11.60;38.60;;;;;;5041908;28;20540;-45
2022/02/19 03:12:24;;;;;;;5.70;1.20;;;11.60;38.60;;;;;;5040863;28;20435;-44
2022/02/19 03:14:50;;;;;;;1.73;1.03;;;11.50;38.30;;;;;;5044295;28;20443;-44
2022/02/19 03:17:15;;;;;;;5.17;1.00;;;11.10;38.70;;;;;;5042649;28;20451;-46
2022/02/19 03:19:41;;;;;;;4.23;1.37;;;10.90;39.30;;;;;;5040956;28;20201;-45
2022/02/19 03:22:07;;;;;;;5.00;1.30;;;10.50;39.00;;;;;;5036104;28;20197;-44
2022/02/19 03:24:32;;;;;;;2.27;1.20;;;10.80;39.80;;;;;;5040731;28;20196;-45
2022/02/19 03:27:02;;;;;;;5.17;1.33;;;10.70;39.80;;;;;;5037752;28;20326;-46
2022/02/19 03:29:29;;;;;;;10.80;1.47;;;10.50;39.70;;;;;;5037891;28;20307;-46
2022/02/19 03:31:55;;;;;;;7.17;2.57;;;10.70;40.10;;;;;;5041228;28;20445;-45
2022/02/19 03:34:21;;;;;;;4.37;1.73;;;10.70;39.70;;;;;;5040219;28;20448;-45
2022/02/19 03:36:47;;;;;;;9.43;1.93;;;10.80;40.00;;;;;;5042518;28;20435;-44
2022/02/19 03:39:13;;;;;;;3.43;1.37;;;10.70;39.80;;;;;;5040457;28;20820;-44
2022/02/19 03:41:38;;;;;;;4.83;1.43;;;10.80;39.80;;;;;;5046184;28;20441;-44
2022/02/19 03:44:05;;;;;;;2.70;2.00;;;10.60;39.40;;;;;;5046548;28;20192;-44
2022/02/19 03:46:31;;;;;;;2.10;1.20;;;10.50;39.70;;;;;;5045154;28;20212;-43
2022/02/19 03:48:57;;;;;;;6.90;1.60;;;10.60;39.70;;;;;;5045562;28;20443;-44
2022/02/19 03:51:22;;;;;;;5.30;1.27;;;10.50;39.80;;;;;;5043539;28;20439;-44
2022/02/19 03:53:48;;;;;;;8.07;1.30;;;10.40;39.80;;;;;;5039175;28;20476;-45
2022/02/19 03:56:14;;;;;;;5.93;1.80;;;10.60;40.20;;;;;;5037104;28;20204;-46
2022/02/19 03:58:40;;;;;;;3.07;1.43;;;10.60;39.90;;;;;;5038927;28;20200;-44
2022/02/19 04:01:06;;;;;;;3.70;1.30;;;10.50;39.80;;;;;;5037099;28;20563;-49
2022/02/19 04:03:31;;;;;;;9.60;1.53;;;10.60;39.80;;;;;;5040269;28;20205;-44
2022/02/19 04:05:57;;;;;;;4.13;1.20;;;10.60;39.60;;;;;;5041621;28;20545;-46
2022/02/19 04:08:24;;;;;;;4.57;1.57;;;10.70;39.80;;;;;;5042259;28;20200;-45
2022/02/19 04:10:50;;;;;;;3.93;1.40;;;10.50;39.50;;;;;;5042875;28;20586;-45
2022/02/19 04:13:16;;;;;;;6.83;1.50;;;10.60;39.90;;;;;;5034767;28;20444;-45
2022/02/19 04:15:42;;;;;;;5.60;1.70;;;10.80;39.70;;;;;;5036197;28;20439;-44
2022/02/19 04:18:07;;;;;;;4.90;1.57;;;10.60;39.40;;;;;;5041158;28;20269;-43
2022/02/19 04:20:33;;;;;;;5.10;1.87;;;10.50;39.50;;;;;;5046459;28;20193;-43
2022/02/19 04:22:58;;;;;;;4.83;1.07;;;10.30;39.90;;;;;;5046061;28;20184;-45
2022/02/19 04:25:27;;;;;;;5.57;1.03;;;10.30;40.00;;;;;;5048529;28;20291;-44
2022/02/19 04:28:04;;;;;;;6.23;1.40;;;10.40;40.10;;;;;;5036243;28;20203;-44
2022/02/19 04:30:30;;;;;;;6.00;1.93;;;10.50;39.90;;;;;;5027188;28;20514;-44
2022/02/19 04:32:57;;;;;;;5.83;2.00;;;10.40;40.00;;;;;;5046180;28;20536;-46
2022/02/19 04:35:24;;;;;;;2.30;1.10;;;10.40;40.10;;;;;;5047382;28;20193;-45
2022/02/19 04:37:49;;;;;;;5.60;1.60;;;10.40;39.90;;;;;;5047095;28;20508;-45
2022/02/19 04:40:15;;;;;;;6.17;1.23;;;10.30;39.90;;;;;;5045594;28;20440;-44
2022/02/19 04:42:43;;;;;;;9.17;2.83;;;10.30;40.00;;;;;;5040329;28;20311;-45
2022/02/19 04:45:12;;;;;;;3.33;1.20;;;10.20;39.70;;;;;;5044807;28;20435;-43
2022/02/19 04:47:38;;;;;;;4.60;1.27;;;10.00;39.60;;;;;;5039290;28;21132;-45
2022/02/19 04:50:05;;;;;;;3.83;1.20;;;9.90;40.90;;;;;;5047378;28;20570;-44
2022/02/19 04:52:32;;;;;;;4.17;1.10;;;9.70;41.10;;;;;;5046791;28;20283;-47
2022/02/19 04:54:57;;;;;;;4.13;1.33;;;9.90;41.40;;;;;;5045637;28;20518;-44
2022/02/19 04:57:23;;;;;;;7.50;2.37;;;10.00;40.50;;;;;;5038821;28;20526;-45
2022/02/19 04:59:49;;;;;;;4.10;1.30;;;9.90;40.90;;;;;;5042099;28;20571;-45
2022/02/19 05:02:14;;;;;;;9.00;1.70;;;10.00;40.20;;;;;;5045549;28;20219;-44
2022/02/19 05:04:40;;;;;;;3.13;1.40;;;9.90;41.00;;;;;;5045468;28;20196;-45
2022/02/19 05:07:05;;;;;;;2.53;1.00;;;10.10;40.30;;;;;;5047953;28;20189;-46
2022/02/19 05:09:31;;;;;;;4.30;1.23;;;10.30;39.90;;;;;;5042219;28;20216;-47
2022/02/19 05:11:56;;;;;;;4.00;1.60;;;10.00;39.80;;;;;;5045162;28;20254;-47
2022/02/19 05:14:22;;;;;;;7.20;1.63;;;10.00;40.10;;;;;;5044590;28;20292;-45
2022/02/19 05:16:48;;;;;;;3.80;1.10;;;9.80;40.90;;;;;;5049505;28;20203;-44
2022/02/19 05:19:13;;;;;;;4.40;1.20;;;10.10;40.20;;;;;;5041349;28;20644;-43
2022/02/19 05:21:39;;;;;;;5.20;1.43;;;10.00;39.90;;;;;;5043293;28;20193;-43
2022/02/19 05:24:04;;;;;;;5.20;1.30;;;9.80;41.00;;;;;;5036022;28;20247;-46
2022/02/19 05:26:30;;;;;;;7.13;1.07;;;9.80;41.20;;;;;;5047378;28;20227;-44
2022/02/19 05:28:56;;;;;;;6.13;1.53;;;10.00;40.50;;;;;;5044096;28;20254;-46
2022/02/19 05:31:21;;;;;;;9.10;1.50;;;10.00;40.20;;;;;;5040069;28;20298;-44
2022/02/19 05:33:47;;;;;;;7.27;1.90;;;10.10;40.40;;;;;;5048057;28;20197;-44
2022/02/19 05:36:13;;;;;;;8.70;1.57;;;10.20;40.50;;;;;;5048769;28;20308;-44
2022/02/19 05:38:38;;;;;;;1.60;0.90;;;10.20;40.50;;;;;;5046743;28;20204;-43
2022/02/19 05:41:04;;;;;;;3.97;1.70;;;10.30;40.50;;;;;;5043987;28;20216;-44
2022/02/19 05:43:30;;;;;;;4.97;1.20;;;10.30;40.40;;;;;;5042909;28;20566;-43
2022/02/19 05:45:55;;;;;;;6.60;1.60;;;10.20;40.40;;;;;;5043289;28;20192;-47
2022/02/19 05:48:21;;;;;;;5.80;1.60;;;10.10;40.40;;;;;;5041999;28;20201;-43
2022/02/19 05:50:47;;;;;;;7.70;1.50;;;10.10;40.80;;;;;;5041815;28;20224;-45
2022/02/19 05:53:13;;;;;;;5.10;1.50;;;10.10;41.00;;;;;;5046022;28;20559;-45
2022/02/19 05:55:40;;;;;;;9.57;1.77;;;10.20;41.20;;;;;;5047389;28;21670;-44
2022/02/19 05:58:06;;;;;;;4.10;1.27;;;10.20;41.10;;;;;;5043640;28;20489;-46
2022/02/19 06:00:32;;;;;;;7.17;2.10;;;10.30;41.00;;;;;;5036611;28;20455;-44
2022/02/19 06:02:57;;;;;;;6.23;1.80;;;10.20;41.00;;;;;;5036930;28;20435;-44
2022/02/19 06:05:23;;;;;;;3.87;1.70;;;10.00;41.10;;;;;;5044918;28;20196;-44
2022/02/19 06:07:49;;;;;;;7.03;1.57;;;10.10;41.30;;;;;;5038991;28;20200;-46
2022/02/19 06:10:14;;;;;;;4.37;1.57;;;9.90;42.40;;;;;;5036409;28;20229;-43
2022/02/19 06:12:41;;;;;;;4.83;1.47;;;9.80;42.80;;;;;;5045071;28;20201;-45
2022/02/19 06:15:07;;;;;;;5.00;2.40;;;9.70;42.60;;;;;;5044989;28;20212;-43
2022/02/19 06:17:33;;;;;;;5.80;1.50;;;9.80;42.70;;;;;;5043712;28;20446;-46
2022/02/19 06:19:59;;;;;;;9.20;1.43;;;9.50;43.00;;;;;;5048124;28;20764;-44
2022/02/19 06:22:24;;;;;;;3.30;1.43;;;9.60;43.50;;;;;;5044701;28;20359;-47
2022/02/19 06:24:50;;;;;;;7.00;1.83;;;9.70;43.50;;;;;;5039678;28;20189;-43
2022/02/19 06:27:15;;;;;;;2.80;1.37;;;9.50;43.50;;;;;;5046159;28;20200;-46
2022/02/19 06:29:41;;;;;;;5.67;1.67;;;9.60;43.70;;;;;;5046564;28;20242;-44
2022/02/19 06:32:07;;;;;;;7.07;1.90;;;9.60;43.70;;;;;;5044819;28;20222;-45
2022/02/19 06:34:33;;;;;;;4.00;1.60;;;9.70;43.70;;;;;;5041155;28;20710;-44
2022/02/19 06:36:58;;;;;;;10.97;1.37;;;9.90;43.50;;;;;;5041689;28;20648;-44
2022/02/19 06:39:24;;;;;;;3.97;1.13;;;9.90;43.20;;;;;;5043414;28;20259;-45
2022/02/19 06:41:49;;;;;;;9.43;1.67;;;10.00;42.60;;;;;;5042609;28;20699;-44
2022/02/19 06:44:15;;;;;;;5.63;2.20;;;10.20;42.30;;;;;;5047338;28;20192;-44
2022/02/19 06:46:40;;;;;;;4.63;1.50;;;10.40;42.00;;;;;;5048478;28;20233;-46
2022/02/19 06:49:06;;;;;;;27.90;17.20;;;10.50;41.70;;;;;;5050584;28;20274;-44
2022/02/19 06:51:33;;;;;;;11.27;4.90;;;10.50;41.50;;;;;;5041473;28;20184;-45
2022/02/19 06:53:58;;;;;;;6.00;1.90;;;10.60;41.40;;;;;;5048674;28;20189;-44
2022/02/19 06:56:25;;;;;;;4.83;1.53;;;10.70;41.40;;;;;;5049563;28;20941;-44
2022/02/19 06:58:52;;;;;;;5.60;1.40;;;10.70;41.20;;;;;;5046111;28;20192;-43
2022/02/19 07:01:17;;;;;;;3.27;1.30;;;10.70;41.70;;;;;;5045484;28;20451;-43
2022/02/19 07:03:43;;;;;;;7.30;1.67;;;10.50;40.90;;;;;;5045329;28;20431;-45
2022/02/19 07:06:09;;;;;;;5.83;1.30;;;10.50;41.50;;;;;;5049713;28;20431;-46
2022/02/19 07:08:35;;;;;;;4.33;1.80;;;10.40;41.30;;;;;;5049139;28;20196;-43
2022/02/19 07:11:02;;;;;;;6.40;1.40;;;10.50;41.50;;;;;;5044977;28;20522;-44
2022/02/19 07:13:27;;;;;;;5.40;1.70;;;10.60;41.40;;;;;;5049400;28;20527;-46
2022/02/19 07:15:53;;;;;;;4.27;1.70;;;10.90;41.10;;;;;;5049323;28;20514;-44
2022/02/19 07:18:19;;;;;;;5.03;1.60;;;11.10;40.70;;;;;;5041908;28;20253;-44
2022/02/19 07:20:47;;;;;;;2.23;1.13;;;11.20;40.50;;;;;;5048170;28;20253;-45
2022/02/19 07:23:13;;;;;;;4.33;1.80;;;11.10;40.40;;;;;;5049238;28;20193;-45
2022/02/19 07:25:39;;;;;;;6.83;1.97;;;11.20;40.50;;;;;;5049671;28;20439;-45
2022/02/19 07:28:06;;;;;;;5.43;1.67;;;11.40;40.40;;;;;;5047227;28;20527;-45
2022/02/19 07:30:34;;;;;;;4.40;1.50;;;11.30;40.10;;;;;;5041052;28;20487;-44
2022/02/19 07:32:59;;;;;;;3.87;1.63;;;11.20;40.30;;;;;;5041631;28;20436;-44
2022/02/19 07:35:25;;;;;;;7.47;1.93;;;11.20;40.30;;;;;;5047424;28;21048;-46
2022/02/19 07:37:51;;;;;;;6.70;1.40;;;11.30;40.10;;;;;;5052912;28;20721;-45
2022/02/19 07:40:17;;;;;;;6.73;1.67;;;11.20;40.00;;;;;;5046732;28;20557;-44
2022/02/19 07:42:43;;;;;;;2.40;1.17;;;11.40;40.30;;;;;;5052891;28;20471;-45
2022/02/19 07:45:09;;;;;;;5.70;1.50;;;11.50;40.10;;;;;;5044232;28;20200;-44
2022/02/19 07:47:34;;;;;;;3.67;1.40;;;11.30;40.10;;;;;;5048522;28;22633;-44
2022/02/19 07:58:27;;;;;;;7.67;1.97;;;12.50;39.50;;;;;;5046972;28;20526;-44
2022/02/19 08:01:14;;;;;;;9.20;3.07;;;12.70;39.10;;;;;;5048730;28;20442;-45
2022/02/19 08:03:40;;;;;;;7.03;1.67;;;12.80;38.60;;;;;;5044850;28;20471;-45
2022/02/19 08:06:06;;;;;;;7.63;1.60;;;12.90;38.60;;;;;;5049655;28;20492;-45
2022/02/19 08:08:33;;;;;;;6.30;2.33;;;12.90;38.50;;;;;;5045757;28;20461;-44
2022/02/19 08:10:59;;;;;;;3.77;1.70;;;12.90;38.60;;;;;;5042562;28;20499;-46
2022/02/19 08:13:25;;;;;;;4.90;1.70;;;13.00;38.50;;;;;;5048353;28;20486;-48
2022/02/19 08:15:51;;;;;;;26.10;24.10;;;13.20;38.30;;;;;;5048514;28;20528;-48
2022/02/19 08:18:18;;;;;;;9.30;4.77;;;13.00;38.20;;;;;;5035666;28;20435;-47
2022/02/19 08:20:46;;;;;;;9.50;2.40;;;12.80;38.60;;;;;;5040870;28;20770;-47
2022/02/19 08:23:13;;;;;;;7.80;2.10;;;12.80;39.20;;;;;;5047595;28;20416;-46
2022/02/19 08:25:39;;;;;;;6.67;1.50;;;12.70;39.40;;;;;;5049066;28;20789;-45
2022/02/19 08:28:06;;;;;;;6.53;1.93;;;12.60;39.40;;;;;;5040236;28;20427;-47
2022/02/19 08:30:34;;;;;;;4.23;1.60;;;12.40;39.50;;;;;;5043627;28;20842;-47
2022/02/19 08:32:59;;;;;;;6.20;1.80;;;12.30;39.80;;;;;;5054417;28;20457;-48
2022/02/19 08:35:25;;;;;;;6.70;1.93;;;12.30;40.10;;;;;;5040244;28;20435;-46
2022/02/19 08:37:51;;;;;;;6.37;2.17;;;12.30;40.20;;;;;;5037508;28;20307;-44
2022/02/19 08:40:16;;;;;;;4.63;1.67;;;12.40;40.20;;;;;;5042440;28;20704;-46
2022/02/19 08:42:44;;;;;;;4.93;1.50;;;12.60;39.70;;;;;;5039771;28;20233;-46
2022/02/19 08:45:11;;;;;;;8.13;2.00;;;12.60;39.50;;;;;;5051891;28;20192;-47
2022/02/19 08:47:37;;;;;;;8.20;1.47;;;12.60;39.40;;;;;;5031849;28;20501;-46
2022/02/19 08:50:04;;;;;;;7.70;2.20;;;12.40;39.20;;;;;;5038857;28;20498;-44
2022/02/19 08:52:31;;;;;;;8.77;2.20;;;12.40;39.40;;;;;;5043146;28;20514;-45
2022/02/19 08:54:57;;;;;;;10.17;1.73;;;12.20;39.90;;;;;;5036583;28;20459;-45
2022/02/19 08:57:22;;;;;;;6.77;2.40;;;12.00;39.90;;;;;;5037952;28;20927;-44
2022/02/19 08:59:48;;;;;;;3.27;1.30;;;11.90;39.80;;;;;;5042114;28;20447;-45
2022/02/19 09:02:13;;;;;;;3.67;1.57;;;12.00;40.00;;;;;;5041170;28;20189;-48
2022/02/19 09:04:39;;;;;;;3.90;1.37;;;12.00;39.60;;;;;;5044169;28;20559;-44
2022/02/19 09:07:05;;;;;;;10.10;2.37;;;12.00;39.70;;;;;;5042017;28;20200;-46
2022/02/19 09:09:32;;;;;;;8.57;1.73;;;12.20;39.50;;;;;;5044267;28;20644;-45
2022/02/19 09:11:58;;;;;;;4.77;1.20;;;12.00;39.60;;;;;;5037660;28;20244;-47
2022/02/19 09:14:24;;;;;;;6.60;1.53;;;12.00;39.30;;;;;;5043557;28;20493;-47
2022/02/19 09:16:50;;;;;;;4.70;1.50;;;12.10;39.40;;;;;;5044376;28;20930;-49
2022/02/19 09:19:15;;;;;;;3.37;1.37;;;12.10;39.30;;;;;;5041149;28;20203;-44
2022/02/19 09:21:43;;;;;;;5.50;1.83;;;12.00;39.10;;;;;;5045274;28;20575;-44
2022/02/19 09:24:09;;;;;;;6.37;1.80;;;11.90;39.10;;;;;;5049525;28;20196;-46
2022/02/19 09:26:34;;;;;;;8.33;1.50;;;11.90;39.20;;;;;;5041229;28;20440;-44
2022/02/19 09:29:00;;;;;;;5.53;2.03;;;11.90;39.60;;;;;;5047280;28;20201;-46
2022/02/19 09:31:26;;;;;;;8.47;2.23;;;11.80;39.30;;;;;;5050213;28;20233;-45
2022/02/19 09:33:52;;;;;;;4.13;1.30;;;11.90;39.70;;;;;;5047427;28;20440;-45
2022/02/19 09:36:17;;;;;;;5.47;1.57;;;12.10;39.30;;;;;;5044848;28;20192;-45
2022/02/19 09:38:43;;;;;;;3.90;1.50;;;12.00;39.30;;;;;;5042429;28;20188;-45
2022/02/19 09:41:12;;;;;;;2.20;1.03;;;12.10;39.80;;;;;;5044462;28;20194;-44
2022/02/19 09:43:39;;;;;;;3.23;1.17;;;12.20;39.60;;;;;;5046147;28;20247;-45
2022/02/19 09:46:06;;;;;;;6.00;1.67;;;12.60;38.60;;;;;;5047322;28;20423;-45
2022/02/19 09:48:32;;;;;;;5.97;2.07;;;12.60;38.40;;;;;;5043012;28;20552;-46
2022/02/19 09:50:59;;;;;;;8.10;1.67;;;12.40;38.40;;;;;;5039326;28;20525;-47
2022/02/19 09:53:25;;;;;;;5.67;2.27;;;12.60;37.80;;;;;;5040170;28;20428;-44
2022/02/19 09:55:51;;;;;;;6.90;1.87;;;12.70;38.10;;;;;;5043833;28;20535;-47
2022/02/19 09:58:16;;;;;;;8.27;1.33;;;13.00;38.40;;;;;;5043415;28;20522;-47
2022/02/19 10:00:46;;;;;;;7.03;1.17;;;13.10;37.00;;;;;;5048254;28;20196;-45
2022/02/19 10:03:17;;;;;;;4.83;1.47;;;13.00;35.30;;;;;;5037045;28;20225;-47
2022/02/19 10:05:43;;;;;;;7.40;1.40;;;13.00;35.10;;;;;;5042852;28;20431;-47
2022/02/19 10:08:10;;;;;;;4.53;1.27;;;13.00;35.70;;;;;;5043035;28;20433;-45
2022/02/19 10:10:56;;;;;;;6.33;2.00;;;13.30;35.70;;;;;;5039446;28;20490;-46
2022/02/19 10:13:38;;;;;;;7.00;1.50;;;13.50;36.00;;;;;;5036108;28;20486;-46
2022/02/19 10:16:06;;;;;;;4.23;1.87;;;13.50;35.40;;;;;;5042085;28;21125;-47
2022/02/19 10:18:35;;;;;;;2.27;0.83;;;13.60;35.20;;;;;;5042669;28;20524;-47
2022/02/19 10:21:21;;;;;;;5.53;1.87;;;13.90;35.80;;;;;;5038169;28;20478;-48
2022/02/19 10:23:50;;;;;;;3.37;1.50;;;14.20;35.10;;;;;;5043788;28;20439;-45
2022/02/19 10:26:25;;;;;;;2.70;1.30;;;13.80;33.20;;;;;;5044602;28;20522;-45
2022/02/19 10:29:08;;;;;;;5.87;1.90;;;13.80;34.00;;;;;;5040898;28;20522;-46
2022/02/19 10:31:35;;;;;;;4.30;1.53;;;13.80;34.20;;;;;;5047281;28;20454;-45
2022/02/19 10:34:08;;;;;;;6.53;1.90;;;13.70;34.20;;;;;;5041541;28;20486;-46
2022/02/19 10:36:51;;;;;;;6.37;1.60;;;13.60;34.20;;;;;;5037150;28;20439;-45
2022/02/19 10:39:26;;;;;;;6.80;1.60;;;13.70;34.20;;;;;;5046483;28;20431;-45
2022/02/19 10:41:54;;;;;;;5.90;1.33;;;13.80;33.90;;;;;;5040390;28;20946;-44
2022/02/19 10:44:27;;;;;;;3.10;1.20;;;13.50;33.80;;;;;;5044087;28;20446;-44
2022/02/19 10:46:54;;;;;;;3.40;1.90;;;13.60;34.30;;;;;;5034319;28;20456;-44
2022/02/19 10:49:21;;;;;;;3.07;1.33;;;13.80;34.60;;;;;;5044367;28;20482;-45
2022/02/19 10:51:46;;;;;;;3.13;1.20;;;13.90;33.90;;;;;;5022138;28;20577;-44
2022/02/19 10:54:17;;;;;;;3.83;1.53;;;14.10;33.80;;;;;;5040476;28;20938;-44
2022/02/19 10:56:43;;;;;;;2.53;1.33;;;14.50;33.80;;;;;;5045312;28;20189;-45
2022/02/19 10:59:13;;;;;;;2.60;1.50;;;14.50;32.30;;;;;;5042874;28;20484;-44
2022/02/19 11:01:52;;;;;;;5.70;1.90;;;14.60;31.60;;;;;;5046534;28;20200;-46
2022/02/19 11:04:21;;;;;;;3.40;1.50;;;14.40;31.10;;;;;;5042675;28;20431;-44
2022/02/19 11:06:49;;;;;;;2.20;1.23;;;14.60;31.40;;;;;;5040387;28;20423;-44
2022/02/19 11:09:15;;;;;;;4.30;1.40;;;14.60;31.90;;;;;;5046462;28;20482;-46
2022/02/19 11:11:44;;;;;;;4.70;1.70;;;14.10;31.10;;;;;;5033471;28;20439;-44
2022/02/19 11:14:14;;;;;;;7.10;1.87;;;14.10;31.80;;;;;;5035909;28;20459;-44
2022/02/19 11:16:41;;;;;;;2.83;1.30;;;14.30;31.70;;;;;;5042804;28;20431;-45
2022/02/19 11:19:07;;;;;;;7.10;1.53;;;14.30;32.10;;;;;;5043678;28;20609;-46
2022/02/19 11:21:33;;;;;;;4.43;1.27;;;14.50;32.10;;;;;;5044496;28;20446;-44
2022/02/19 11:24:02;;;;;;;3.90;1.90;;;14.60;32.00;;;;;;5047983;28;20431;-44
2022/02/19 11:26:29;;;;;;;3.37;1.27;;;14.60;32.20;;;;;;5053399;28;20422;-44
2022/02/19 11:29:00;;;;;;;2.53;1.20;;;14.70;32.20;;;;;;5050649;28;20575;-44
2022/02/19 11:31:29;;;;;;;2.10;1.17;;;14.80;32.00;;;;;;5039507;28;20471;-44
2022/02/19 11:33:59;;;;;;;3.83;1.60;;;14.90;31.60;;;;;;5042590;28;20471;-46
2022/02/19 11:36:29;;;;;;;8.00;1.50;;;14.90;31.00;;;;;;5036294;28;20737;-45
2022/02/19 11:38:55;;;;;;;4.83;1.67;;;14.90;30.80;;;;;;5036262;28;20467;-46
2022/02/19 11:41:37;;;;;;;3.47;1.00;;;14.80;30.90;;;;;;5051444;28;20454;-44
2022/02/19 11:44:23;;;;;;;3.00;1.00;;;14.90;31.40;;;;;;5046442;28;20227;-47
2022/02/19 11:46:50;;;;;;;3.37;1.60;;;14.70;30.80;;;;;;5031616;28;20446;-46
2022/02/19 11:49:24;;;;;;;3.93;1.63;;;14.60;30.80;;;;;;5047881;28;22363;-44
2022/02/19 11:52:02;;;;;;;2.37;0.90;;;14.70;30.90;;;;;;5041030;28;20442;-46
2022/02/19 11:54:28;;;;;;;3.60;1.60;;;14.70;30.40;;;;;;5045764;28;20446;-44
2022/02/19 11:56:54;;;;;;;10.37;1.13;;;14.60;30.20;;;;;;5039421;28;20467;-45
2022/02/19 11:59:21;;;;;;;4.37;2.07;;;14.70;31.10;;;;;;5037687;28;20439;-44
2022/02/19 12:02:13;;;;;;;1.87;1.10;;;14.60;30.80;;;;;;5037027;28;20799;-45
2022/02/19 12:04:39;;;;;;;3.43;1.47;;;14.70;31.10;;;;;;5048704;28;20439;-44
2022/02/19 12:07:05;;;;;;;5.90;1.17;;;14.30;30.80;;;;;;5040420;28;20438;-44
2022/02/19 12:09:31;;;;;;;2.70;0.97;;;14.00;31.00;;;;;;5039059;28;20290;-47
2022/02/19 12:12:04;;;;;;;2.03;1.20;;;13.90;31.10;;;;;;5047126;28;20263;-46
2022/02/19 12:14:42;;;;;;;2.93;1.13;;;13.60;30.40;;;;;;5038696;28;20543;-45
2022/02/19 12:17:09;;;;;;;2.77;1.20;;;13.50;31.50;;;;;;5035258;28;20446;-45
2022/02/19 12:19:59;;;;;;;3.67;1.40;;;13.50;32.10;;;;;;5039941;28;20521;-44
2022/02/19 12:22:48;;;;;;;1.47;1.13;;;13.60;32.40;;;;;;5033297;28;20443;-44
2022/02/19 12:25:16;;;;;;;2.70;1.60;;;13.70;31.80;;;;;;5036835;28;20458;-44
2022/02/19 12:27:43;;;;;;;2.03;1.17;;;13.70;30.30;;;;;;5042393;28;20436;-45
2022/02/19 12:30:26;;;;;;;2.17;1.30;;;13.80;30.80;;;;;;5045247;28;20479;-44
2022/02/19 12:32:55;;;;;;;3.87;1.40;;;13.90;31.10;;;;;;5036313;28;20439;-45
2022/02/19 12:35:33;;;;;;;1.50;0.93;;;13.90;31.00;;;;;;5038551;28;20438;-46
2022/02/19 12:37:59;;;;;;;4.17;1.57;;;14.00;31.30;;;;;;5043343;28;20435;-46
2022/02/19 12:40:25;;;;;;;2.83;1.30;;;14.00;31.10;;;;;;5043186;28;20450;-45
2022/02/19 12:42:51;;;;;;;1.83;1.00;;;14.00;31.10;;;;;;5046636;28;20271;-45
2022/02/19 12:45:18;;;;;;;1.33;1.10;;;13.70;30.60;;;;;;5041071;28;20463;-46
2022/02/19 12:47:44;;;;;;;2.57;1.07;;;13.70;31.10;;;;;;5044248;28;20262;-45
2022/02/19 12:50:11;;;;;;;1.53;1.07;;;13.80;31.30;;;;;;5039813;28;21037;-45
2022/02/19 12:52:37;;;;;;;1.57;1.10;;;14.00;31.10;;;;;;5037282;28;21315;-45
2022/02/19 12:55:12;;;;;;;1.57;1.17;;;14.00;31.00;;;;;;5044545;28;20493;-47
2022/02/19 12:57:38;;;;;;;3.13;1.00;;;14.00;31.30;;;;;;5040798;28;21098;-45